Impacts METAR Board
IDs:

KDEN - Denver Intl, CO, US

Updated at: 1200 UTC 13 Dec 2018
Potential Impact None Slight Moderate High
Time 13/00Z 13/01Z 13/02Z 13/03Z 13/04Z 13/05Z 13/06Z 13/07Z 13/08Z 13/09Z 13/10Z 13/11Z 13/12Z
Temp48 42 41 39 37 33 33 32 30 26 28 28 25
Dewpt17 19 17 14 15 18 16 19 17 16 13 10 10
Altim29.66 29.75 29.80 29.85 29.88 29.96 29.99 30.04 30.07 30.10 30.12 30.13 30.16
VIS10 10 10 10 10 10 10 10 10 10 10 10 10
CIG140 100 55 55 70 70 150 70 150 -- -- -- --
CoverBKNOVCOVCOVCOVCOVCBKNOVCBKNSCTFEWFEWFEW
FltCatVFRVFRVFRVFRVFRVFRVFRVFRVFRVFRVFRVFRVFR
WX--------------------------
WDir3002010350101010350350360360360350
WSpd19 11 11 15 26 24 31 21 20 12 20 19 15
WGst29 -- -- 26 36 32 46 -- 27 -- 27 -- 24
Raw hourly METARs
KDEN 122353Z 30019G29KT 10SM FEW080 BKN140 BKN200 09/M08 A2966 RMK AO2 PK WND 29034/2259 SLP023 T00891083 10139 20083 51006
KDEN 130102Z 02011KT 10SM BKN100 OVC150 06/M07 A2975 RMK AO2 WSHFT 0046 T00561072
KDEN 130153Z 01011KT 10SM BKN055 OVC070 05/M08 A2980 RMK AO2 WSHFT 0046 PRESRR SLP078 T00501083
KDEN 130253Z 35015G26KT 10SM OVC055 04/M10 A2985 RMK AO2 PK WND 36030/0240 SLP092 T00391100 51055
KDEN 130353Z 01026G36KT 10SM BKN070 OVC085 03/M09 A2988 RMK AO2 PK WND 35038/0330 SLP108 T00281094
KDEN 130453Z 01024G32KT 10SM OVC070 01/M08 A2996 RMK AO2 PK WND 02043/0357 SLP131 T00061078
KDEN 130553Z 01031G46KT 10SM FEW070 SCT100 BKN150 01/M09 A2999 RMK AO2 PK WND 01046/0553 SLP139 T00061089 10089 20000 51041
KDEN 130653Z 35021KT 10SM BKN070 OVC085 00/M07 A3004 RMK AO2 PK WND 36043/0554 SLP152 T00001072 401390000
KDEN 130753Z 35020G27KT 10SM SCT090 BKN150 M01/M08 A3007 RMK AO2 PK WND 34029/0704 SLP166 T10111083
KDEN 130853Z 36012KT 10SM FEW085 SCT150 M03/M09 A3010 RMK AO2 PK WND 34027/0755 SLP186 T10331089 51033
KDEN 130953Z 36020G27KT 10SM FEW085 FEW150 M02/M11 A3012 RMK AO2 PK WND 35028/0929 SLP194 T10221106
KDEN 131053Z 36019KT 10SM FEW085 FEW150 M02/M12 A3013 RMK AO2 PK WND 36028/1036 SLP196 T10221122
KDEN 131153Z 35015G24KT 10SM FEW080 M04/M12 A3016 RMK AO2 PK WND 36026/1115 SLP211 T10391122 10011 21039 53017



Page loaded:  12:44 UTC  |   04:44 AM Pacific  |   05:44 AM Mountain  |   06:44 AM Central  |   07:44 AM Eastern

 

ADVISORIES

FORECASTS

FORECASTS

OBSERVATIONS

USER TOOLS

ABOUT US